createdAt,value
2022-10-02T00:00:52.962Z,9.68
2022-10-02T00:02:25.084Z,10.63
2022-10-02T00:03:31.161Z,5.78
2022-10-02T00:04:41.516Z,6.35
2022-10-02T00:05:51.689Z,7.68
2022-10-02T00:06:57.955Z,5.38
2022-10-02T00:08:06.901Z,5.72
2022-10-02T00:09:15.779Z,6.75
2022-10-02T00:10:44.752Z,7.40
2022-10-02T00:11:50.577Z,10.30
2022-10-02T00:12:58.451Z,4.43
2022-10-02T00:14:03.804Z,9.85
2022-10-02T00:15:17.406Z,8.85
2022-10-02T00:16:24.565Z,7.53
2022-10-02T00:17:34.375Z,5.45
2022-10-02T00:18:38.028Z,7.60
2022-10-02T00:19:39.461Z,7.63
2022-10-02T00:21:03.358Z,8.30
2022-10-02T00:22:09.079Z,7.43
2022-10-02T00:23:19.597Z,7.70
2022-10-02T00:24:27.184Z,7.43
2022-10-02T00:25:53.318Z,8.15
2022-10-02T00:27:01.201Z,6.32
2022-10-02T00:28:23.158Z,6.65
2022-10-02T00:29:34.550Z,6.72
2022-10-02T00:31:06.248Z,5.32
2022-10-02T00:32:36.677Z,7.30
2022-10-02T00:34:03.196Z,6.90
2022-10-02T00:35:22.825Z,6.88
2022-10-02T00:36:35.545Z,6.15
2022-10-02T00:38:06.127Z,5.53
2022-10-02T00:39:25.523Z,11.90
2022-10-02T00:40:59.509Z,6.32
2022-10-02T00:42:28.787Z,7.38
2022-10-02T00:43:57.170Z,7.57
2022-10-02T00:45:01.593Z,6.95
2022-10-02T00:46:09.162Z,8.30
2022-10-02T00:47:19.831Z,8.48
2022-10-02T00:48:27.332Z,6.55
2022-10-02T00:49:47.482Z,7.78
2022-10-02T00:51:03.527Z,5.72
2022-10-02T00:52:25.966Z,7.38
2022-10-02T00:53:56.599Z,8.88
2022-10-02T00:55:04.030Z,9.13
2022-10-02T00:56:27.643Z,7.32
2022-10-02T00:58:16.845Z,8.63
2022-10-02T00:59:40.971Z,11.32
2022-10-02T01:00:52.298Z,6.68
2022-10-02T01:02:04.368Z,10.00
2022-10-02T01:03:21.552Z,6.75
2022-10-02T01:04:27.971Z,10.65
2022-10-02T01:05:30.548Z,7.50
2022-10-02T01:06:32.631Z,7.72
2022-10-02T01:07:38.990Z,6.47
2022-10-02T01:08:41.080Z,5.80
2022-10-02T01:09:42.903Z,6.97
2022-10-02T01:10:45.689Z,6.63
2022-10-02T01:11:49.086Z,10.65
2022-10-02T01:12:50.528Z,13.63
2022-10-02T01:13:52.168Z,7.30
2022-10-02T01:14:53.615Z,7.25
2022-10-02T01:15:57.392Z,11.27
2022-10-02T01:16:58.892Z,6.97
2022-10-02T01:18:02.205Z,6.75
2022-10-02T01:19:03.804Z,6.75
2022-10-02T01:20:07.175Z,6.25
2022-10-02T01:21:15.228Z,8.00
2022-10-02T01:22:41.853Z,9.73
2022-10-02T01:23:57.324Z,5.53
2022-10-02T01:25:02.049Z,6.45
2022-10-02T01:26:03.945Z,6.15
2022-10-02T01:27:05.399Z,6.05
2022-10-02T01:28:07.011Z,6.38
2022-10-02T01:29:08.865Z,6.07
2022-10-02T01:30:14.762Z,6.45
2022-10-02T01:31:17.435Z,6.47
2022-10-02T01:32:19.404Z,8.68
2022-10-02T01:33:23.092Z,6.18
2022-10-02T01:34:24.594Z,5.70
2022-10-02T01:35:31.951Z,5.57
2022-10-02T01:36:35.878Z,8.35
2022-10-02T01:37:41.006Z,6.65
2022-10-02T01:38:44.272Z,6.20
2022-10-02T01:39:45.878Z,6.22
2022-10-02T01:40:47.689Z,10.10
2022-10-02T01:41:49.151Z,7.43
2022-10-02T01:42:50.985Z,6.05
2022-10-02T01:43:56.160Z,8.23
2022-10-02T01:44:58.331Z,9.23
2022-10-02T01:46:23.102Z,5.72
2022-10-02T01:47:44.246Z,7.22
2022-10-02T01:48:53.066Z,7.55
2022-10-02T01:50:01.340Z,7.57
2022-10-02T01:51:39.152Z,5.78
2022-10-02T01:53:07.896Z,9.27
2022-10-02T01:54:33.265Z,7.90
2022-10-02T01:56:17.348Z,6.28
2022-10-02T01:57:21.474Z,6.25
2022-10-02T01:58:56.540Z,7.95
2022-10-02T02:00:08.086Z,10.05
2022-10-02T02:01:24.929Z,10.95
2022-10-02T02:02:30.327Z,9.63
2022-10-02T02:03:44.486Z,7.20
2022-10-02T02:04:56.949Z,7.50
2022-10-02T02:06:09.858Z,7.15
2022-10-02T02:07:27.069Z,7.93
2022-10-02T02:08:43.979Z,7.45
2022-10-02T02:10:05.071Z,8.02
2022-10-02T02:11:21.781Z,5.93
2022-10-02T02:12:38.398Z,8.98
2022-10-02T02:13:58.356Z,6.88
2022-10-02T02:15:06.540Z,5.97
2022-10-02T02:16:08.110Z,8.43
2022-10-02T02:17:17.787Z,8.23
2022-10-02T02:18:43.446Z,5.13
2022-10-02T02:20:07.768Z,7.13
2022-10-02T02:21:17.038Z,7.45
2022-10-02T02:22:44.286Z,6.18
2022-10-02T02:23:47.287Z,5.68
2022-10-02T02:26:06.880Z,5.47
2022-10-02T02:27:15.081Z,6.47
2022-10-02T02:28:20.971Z,6.22
2022-10-02T02:29:24.657Z,7.65
2022-10-02T02:30:27.669Z,7.35
2022-10-02T02:31:35.567Z,6.78
2022-10-02T02:32:43.948Z,6.50
2022-10-02T02:33:52.914Z,6.72
2022-10-02T02:35:04.147Z,7.45
2022-10-02T02:36:14.534Z,6.05
2022-10-02T02:37:19.256Z,7.10
2022-10-02T02:38:28.669Z,10.30
2022-10-02T02:39:40.497Z,6.65
2022-10-02T02:40:45.457Z,7.22
2022-10-02T02:41:56.187Z,6.90
2022-10-02T02:43:06.111Z,6.35
2022-10-02T02:44:30.631Z,11.98
2022-10-02T02:45:38.002Z,22.25
2022-10-02T02:47:06.834Z,32.50
2022-10-02T02:48:39.434Z,32.47
2022-10-02T02:49:56.050Z,12.40
2022-10-02T02:51:10.575Z,9.25
2022-10-02T02:52:19.906Z,7.88
2022-10-02T02:53:30.383Z,6.38
2022-10-02T02:54:40.002Z,8.02
2022-10-02T02:55:58.549Z,7.60
2022-10-02T02:57:02.527Z,5.28
2022-10-02T02:58:23.786Z,7.10
2022-10-02T02:59:29.826Z,5.70
2022-10-02T03:00:31.490Z,10.10
2022-10-02T03:01:33.404Z,8.32
2022-10-02T03:02:35.056Z,9.18
2022-10-02T03:03:36.532Z,7.70
2022-10-02T03:04:37.936Z,5.93
2022-10-02T03:05:44.384Z,7.20
2022-10-02T03:06:49.622Z,7.18
2022-10-02T03:07:55.134Z,8.40
2022-10-02T03:08:56.584Z,7.43
2022-10-02T03:10:10.013Z,8.63
2022-10-02T03:11:19.496Z,9.30
2022-10-02T03:12:34.128Z,7.60
2022-10-02T03:14:05.156Z,8.00
2022-10-02T03:15:36.712Z,9.27
2022-10-02T03:16:53.774Z,5.95
2022-10-02T03:18:08.357Z,6.30
2022-10-02T03:19:23.178Z,8.98
2022-10-02T03:20:42.799Z,8.85
2022-10-02T03:22:13.384Z,8.63
2022-10-02T03:23:19.768Z,7.68
2022-10-02T03:24:45.262Z,5.68
2022-10-02T03:25:59.296Z,6.50
2022-10-02T03:27:25.370Z,9.57
2022-10-02T03:28:59.456Z,6.40
2022-10-02T03:30:08.546Z,9.27
2022-10-02T03:32:16.442Z,5.38
2022-10-02T03:33:17.935Z,5.95
2022-10-02T03:34:19.627Z,8.88
2022-10-02T03:35:23.654Z,10.02
2022-10-02T03:36:25.883Z,8.10
2022-10-02T03:37:28.564Z,6.63
2022-10-02T03:38:31.624Z,10.40
2022-10-02T03:39:33.064Z,7.40
2022-10-02T03:40:34.502Z,7.05
2022-10-02T03:41:36.558Z,8.05
2022-10-02T03:42:38.790Z,7.35
2022-10-02T03:43:40.377Z,8.18
2022-10-02T03:44:43.164Z,8.57
2022-10-02T03:45:51.257Z,7.45
2022-10-02T03:46:53.670Z,9.07
2022-10-02T03:47:55.268Z,9.32
2022-10-02T03:48:56.728Z,8.65
2022-10-02T03:49:58.612Z,8.50
2022-10-02T03:51:00.108Z,11.77
2022-10-02T03:52:02.319Z,7.88
2022-10-02T03:53:13.465Z,9.88
2022-10-02T03:54:20.852Z,9.80
2022-10-02T03:55:38.922Z,8.45
2022-10-02T03:56:48.184Z,8.07
2022-10-02T03:57:49.795Z,7.63
2022-10-02T03:58:55.071Z,7.90
2022-10-02T03:59:59.524Z,8.02
2022-10-02T04:01:19.752Z,7.85
2022-10-02T04:02:34.621Z,5.63
2022-10-02T04:03:49.919Z,9.52
2022-10-02T04:05:00.080Z,8.43
2022-10-02T04:06:11.448Z,5.82
2022-10-02T04:07:26.143Z,9.27
2022-10-02T04:08:34.533Z,5.97
2022-10-02T04:09:51.946Z,6.80
2022-10-02T04:11:12.949Z,7.60
2022-10-02T04:12:23.468Z,5.95
2022-10-02T04:13:32.134Z,9.90
2022-10-02T04:14:43.084Z,8.48
2022-10-02T04:15:57.860Z,8.63
2022-10-02T04:17:10.852Z,9.50
2022-10-02T04:18:39.281Z,6.32
2022-10-02T04:20:14.256Z,9.20
2022-10-02T04:21:23.397Z,7.15
2022-10-02T04:22:40.052Z,9.52
2022-10-02T04:23:52.111Z,7.10
2022-10-02T04:25:10.435Z,8.10
2022-10-02T04:26:21.002Z,10.40
2022-10-02T04:27:40.110Z,8.07
2022-10-02T04:28:52.615Z,7.55
2022-10-02T04:30:04.934Z,6.10
2022-10-02T04:31:13.408Z,9.20
2022-10-02T04:32:21.434Z,7.15
2022-10-02T04:33:24.882Z,5.85
2022-10-02T04:34:28.223Z,8.90
2022-10-02T04:35:36.054Z,7.45
2022-10-02T04:36:46.054Z,8.40
2022-10-02T04:37:56.634Z,8.90
2022-10-02T04:39:03.507Z,7.10
2022-10-02T04:40:26.874Z,7.38
2022-10-02T04:41:43.139Z,7.05
2022-10-02T04:43:23.752Z,6.30
2022-10-02T04:44:51.464Z,7.95
2022-10-02T04:46:08.534Z,6.40
2022-10-02T04:47:46.631Z,7.22
2022-10-02T04:49:18.794Z,5.68
2022-10-02T04:50:33.922Z,6.53
2022-10-02T04:52:14.212Z,6.80
2022-10-02T04:53:29.377Z,8.05
2022-10-02T04:56:11.437Z,8.63
2022-10-02T04:57:27.886Z,6.95
2022-10-02T04:58:49.733Z,7.82
2022-10-02T05:00:13.724Z,10.50
2022-10-02T05:01:52.902Z,8.23
2022-10-02T05:03:11.002Z,6.00
2022-10-02T05:04:18.103Z,6.90
2022-10-02T05:05:29.551Z,8.80
2022-10-02T05:06:46.291Z,5.90
2022-10-02T05:08:02.980Z,6.43
2022-10-02T05:09:13.193Z,7.78
2022-10-02T05:10:35.713Z,8.63
2022-10-02T05:12:15.526Z,6.88
2022-10-02T05:15:35.252Z,7.90
2022-10-02T05:16:58.958Z,6.03
2022-10-02T05:18:09.327Z,6.60
2022-10-02T05:19:36.898Z,5.80
2022-10-02T05:21:17.915Z,10.38
2022-10-02T05:22:54.920Z,8.90
2022-10-02T05:24:02.370Z,8.43
2022-10-02T05:25:15.950Z,6.72
2022-10-02T05:26:44.218Z,11.68
2022-10-02T05:28:02.370Z,6.03
2022-10-02T05:29:42.139Z,7.80
2022-10-02T05:32:17.634Z,6.95
2022-10-02T05:33:57.515Z,5.80
2022-10-02T05:35:37.451Z,7.85
2022-10-02T05:36:49.679Z,6.20
2022-10-02T05:38:19.156Z,6.35
2022-10-02T05:39:43.836Z,6.55
2022-10-02T05:40:56.839Z,6.95
2022-10-02T05:41:58.554Z,9.43
2022-10-02T05:43:20.777Z,8.30
2022-10-02T05:44:27.138Z,7.47
2022-10-02T05:45:37.440Z,7.78
2022-10-02T05:46:52.199Z,6.95
2022-10-02T05:48:02.676Z,8.23
2022-10-02T05:49:14.199Z,9.07
2022-10-02T05:50:18.615Z,8.45
2022-10-02T05:51:37.145Z,6.88
2022-10-02T05:52:57.909Z,7.57
2022-10-02T05:54:07.169Z,11.43
2022-10-02T05:55:37.877Z,11.98
2022-10-02T05:56:46.231Z,6.43
2022-10-02T05:58:15.003Z,9.38
2022-10-02T05:59:25.747Z,7.90
2022-10-02T06:00:40.472Z,5.75
2022-10-02T06:01:46.841Z,8.77
2022-10-02T06:03:08.231Z,8.43
2022-10-02T06:06:42.154Z,9.38
2022-10-02T06:07:47.531Z,10.07
2022-10-02T06:09:04.442Z,7.13
2022-10-02T06:10:22.081Z,6.72
2022-10-02T06:11:31.424Z,8.77
2022-10-02T06:12:42.519Z,7.68
2022-10-02T06:13:49.921Z,8.23
2022-10-02T06:14:57.850Z,11.33
2022-10-02T06:16:19.238Z,7.25
2022-10-02T06:17:31.323Z,8.35
2022-10-02T06:18:36.547Z,7.55
2022-10-02T06:19:52.219Z,6.70
2022-10-02T06:20:59.413Z,7.82
2022-10-02T06:22:13.868Z,7.63
2022-10-02T06:23:22.494Z,8.52
2022-10-02T06:24:31.056Z,8.40
2022-10-02T06:25:40.134Z,9.38
2022-10-02T06:28:09.926Z,7.80
2022-10-02T06:29:27.056Z,7.35
2022-10-02T06:30:32.905Z,6.88
2022-10-02T06:31:42.310Z,6.03
2022-10-02T06:32:55.917Z,7.45
2022-10-02T06:33:57.906Z,6.38
2022-10-02T06:34:59.349Z,9.48
2022-10-02T06:36:22.903Z,8.35
2022-10-02T06:37:24.598Z,7.55
2022-10-02T06:38:55.480Z,8.48
2022-10-02T06:40:34.329Z,8.95
2022-10-02T06:41:47.656Z,9.23
2022-10-02T06:43:27.192Z,8.10
2022-10-02T06:44:35.520Z,9.02
2022-10-02T06:45:48.637Z,7.68
2022-10-02T06:47:21.757Z,6.85
2022-10-02T06:48:53.029Z,11.82
2022-10-02T06:50:04.917Z,9.95
2022-10-02T06:51:29.360Z,8.43
2022-10-02T06:52:54.937Z,10.95
2022-10-02T06:54:34.167Z,9.43
2022-10-02T06:55:52.103Z,8.50
2022-10-02T06:57:20.010Z,9.02
2022-10-02T06:58:47.188Z,11.95
2022-10-02T07:00:12.277Z,9.20
2022-10-02T07:01:35.391Z,9.20
2022-10-02T07:02:55.101Z,8.73
2022-10-02T07:04:26.051Z,7.10
2022-10-02T07:05:49.660Z,9.15
2022-10-02T07:07:06.939Z,7.18
2022-10-02T07:08:29.908Z,8.40
2022-10-02T07:09:51.586Z,10.68
2022-10-02T07:11:08.322Z,7.45
2022-10-02T07:12:31.317Z,6.05
2022-10-02T07:14:07.074Z,5.95
2022-10-02T07:15:09.251Z,8.68
2022-10-02T07:16:50.241Z,7.15
2022-10-02T07:18:19.868Z,9.10
2022-10-02T07:19:33.259Z,6.20
2022-10-02T07:20:39.699Z,9.25
2022-10-02T07:21:50.675Z,8.57
2022-10-02T07:23:13.520Z,9.05
2022-10-02T07:24:39.983Z,7.00
2022-10-02T07:25:47.213Z,6.32
2022-10-02T07:26:59.607Z,7.63
2022-10-02T07:28:39.750Z,11.73
2022-10-02T07:29:52.967Z,8.38
2022-10-02T07:31:01.472Z,6.65
2022-10-02T07:32:41.556Z,4.97
2022-10-02T07:34:17.236Z,5.53
2022-10-02T07:35:28.285Z,6.97
2022-10-02T07:36:46.807Z,7.20
2022-10-02T07:38:12.615Z,10.20
2022-10-02T07:39:52.416Z,6.70
2022-10-02T07:41:24.427Z,8.55
2022-10-02T07:42:43.915Z,8.05
2022-10-02T07:44:22.386Z,8.48
2022-10-02T07:45:26.956Z,6.28
2022-10-02T07:46:44.374Z,7.22
2022-10-02T07:48:33.327Z,7.82
2022-10-02T07:49:50.751Z,7.35
2022-10-02T07:51:27.124Z,6.03
2022-10-02T07:52:47.102Z,7.35
2022-10-02T07:53:56.356Z,7.30
2022-10-02T07:55:09.636Z,10.32
2022-10-02T07:56:20.125Z,8.05
2022-10-02T07:57:45.905Z,8.38
2022-10-02T07:58:54.802Z,7.53
2022-10-02T08:00:20.688Z,7.65
2022-10-02T08:01:30.748Z,5.28
2022-10-02T08:02:46.102Z,6.82
2022-10-02T08:03:59.667Z,8.00
2022-10-02T08:05:05.992Z,6.68
2022-10-02T08:06:08.553Z,11.18
2022-10-02T08:07:10.709Z,6.90
2022-10-02T08:08:28.626Z,7.50
2022-10-02T08:09:48.113Z,7.03
2022-10-02T08:10:57.685Z,8.15
2022-10-02T08:12:08.329Z,8.40
2022-10-02T08:13:28.361Z,7.85
2022-10-02T08:14:41.783Z,6.38
2022-10-02T08:15:47.202Z,5.38
2022-10-02T08:16:55.041Z,7.10
2022-10-02T08:18:11.004Z,6.90
2022-10-02T08:19:29.946Z,6.65
2022-10-02T08:20:36.474Z,7.20
2022-10-02T08:22:12.924Z,7.05
2022-10-02T08:23:23.044Z,5.50
2022-10-02T08:24:36.809Z,8.02
2022-10-02T08:25:49.645Z,7.00
2022-10-02T08:27:13.186Z,7.32
2022-10-02T08:28:31.609Z,8.60
2022-10-02T08:29:33.030Z,7.68
2022-10-02T08:30:34.650Z,6.20
2022-10-02T08:31:36.580Z,6.90
2022-10-02T08:32:38.602Z,7.13
2022-10-02T08:33:40.350Z,4.57
2022-10-02T08:34:42.529Z,8.43
2022-10-02T08:36:13.177Z,6.47
2022-10-02T08:37:21.295Z,7.90
2022-10-02T08:38:39.391Z,7.57
2022-10-02T08:39:44.184Z,5.82
2022-10-02T08:41:05.045Z,5.07
2022-10-02T08:43:05.197Z,5.90
2022-10-02T08:44:24.877Z,7.00
2022-10-02T08:45:51.359Z,5.97
2022-10-02T08:47:23.558Z,6.32
2022-10-02T08:48:56.248Z,4.65
2022-10-02T08:50:34.899Z,5.43
2022-10-02T08:51:58.498Z,6.20
2022-10-02T08:53:37.423Z,4.35
2022-10-02T08:55:00.673Z,6.32
2022-10-02T08:56:19.811Z,7.00
2022-10-02T08:57:52.811Z,5.68
2022-10-02T08:59:19.081Z,7.25
2022-10-02T09:00:57.857Z,7.07
2022-10-02T09:02:14.239Z,5.18
2022-10-02T09:03:45.845Z,6.25
2022-10-02T09:05:09.789Z,5.82
2022-10-02T09:06:30.549Z,6.53
2022-10-02T09:08:08.790Z,8.05
2022-10-02T09:09:28.494Z,7.40
2022-10-02T09:10:55.651Z,7.78
2022-10-02T09:12:06.325Z,8.38
2022-10-02T09:13:13.346Z,9.00
2022-10-02T09:14:34.729Z,5.68
2022-10-02T09:16:09.540Z,8.25
2022-10-02T09:17:30.985Z,7.15
2022-10-02T09:20:04.329Z,6.68
2022-10-02T09:21:50.881Z,6.45
2022-10-02T09:23:17.282Z,7.70
2022-10-02T09:25:01.719Z,8.13
2022-10-02T09:26:36.355Z,5.80
2022-10-02T09:28:06.270Z,8.10
2022-10-02T09:29:35.036Z,6.90
2022-10-02T09:30:57.568Z,7.95
2022-10-02T09:32:11.905Z,6.32
2022-10-02T09:33:22.090Z,8.63
2022-10-02T09:34:56.166Z,7.65
2022-10-02T09:36:24.732Z,8.40
2022-10-02T09:38:11.403Z,6.53
2022-10-02T09:39:31.047Z,9.55
2022-10-02T09:40:54.729Z,7.00
2022-10-02T09:42:21.206Z,7.20
2022-10-02T09:43:51.919Z,9.38
2022-10-02T09:45:19.080Z,6.53
2022-10-02T09:46:31.183Z,6.88
2022-10-02T09:48:23.007Z,7.88
2022-10-02T09:49:46.121Z,6.72
2022-10-02T09:51:09.468Z,8.15
2022-10-02T09:52:30.610Z,7.60
2022-10-02T09:53:47.274Z,7.40
2022-10-02T09:54:58.020Z,6.80
2022-10-02T09:56:18.431Z,6.57
2022-10-02T09:57:49.173Z,7.97
2022-10-02T09:59:12.431Z,7.35
2022-10-02T10:00:19.881Z,8.10
2022-10-02T10:02:05.878Z,6.68
2022-10-02T10:03:28.893Z,8.00
2022-10-02T10:05:00.940Z,5.75
2022-10-02T10:06:22.510Z,5.68
2022-10-02T10:07:59.012Z,5.40
2022-10-02T10:09:49.813Z,5.68
2022-10-02T10:11:10.607Z,5.72
2022-10-02T10:12:43.373Z,5.40
2022-10-02T10:13:47.850Z,7.07
2022-10-02T10:14:55.190Z,6.13
2022-10-02T10:16:33.268Z,8.23
2022-10-02T10:18:13.696Z,4.88
2022-10-02T10:19:52.768Z,5.72
2022-10-02T10:21:20.579Z,5.50
2022-10-02T10:22:47.091Z,4.85
2022-10-02T10:24:26.452Z,6.03
2022-10-02T10:25:51.388Z,6.40
2022-10-02T10:27:19.526Z,6.70
2022-10-02T10:28:53.355Z,7.32
2022-10-02T10:30:26.579Z,6.82
2022-10-02T10:32:04.042Z,7.10
2022-10-02T10:33:34.537Z,5.63
2022-10-02T10:34:49.624Z,5.47
2022-10-02T10:36:29.573Z,5.30
2022-10-02T10:38:11.946Z,6.55
2022-10-02T10:39:38.272Z,6.28
2022-10-02T10:40:58.001Z,5.10
2022-10-02T10:43:07.038Z,7.82
2022-10-02T10:44:22.252Z,5.60
2022-10-02T10:45:59.994Z,8.32
2022-10-02T10:47:16.027Z,7.00
2022-10-02T10:48:33.134Z,7.07
2022-10-02T10:50:03.248Z,6.80
2022-10-02T10:51:30.529Z,5.78
2022-10-02T10:52:54.391Z,5.78
2022-10-02T10:54:17.366Z,6.82
2022-10-02T10:55:33.178Z,5.47
2022-10-02T10:56:39.346Z,5.88
2022-10-02T10:57:43.946Z,14.85
2022-10-02T10:59:25.316Z,18.75
2022-10-02T11:00:49.055Z,7.57
2022-10-02T11:02:20.606Z,5.97
2022-10-02T11:03:41.425Z,5.63
2022-10-02T11:04:58.448Z,5.82
2022-10-02T11:06:22.298Z,6.38
2022-10-02T11:07:35.438Z,6.15
2022-10-02T11:08:45.664Z,5.90
2022-10-02T11:10:11.248Z,4.82
2022-10-02T11:11:27.868Z,5.20
2022-10-02T11:12:54.013Z,8.00
2022-10-02T11:14:19.849Z,5.63
2022-10-02T11:15:41.057Z,7.35
2022-10-02T11:17:11.323Z,6.25
2022-10-02T11:18:28.788Z,5.32
2022-10-02T11:19:54.744Z,5.10
2022-10-02T11:21:10.672Z,5.57
2022-10-02T11:22:46.898Z,4.47
2022-10-02T11:23:57.335Z,6.47
2022-10-02T11:25:14.097Z,5.35
2022-10-02T11:26:45.025Z,5.28
2022-10-02T11:28:05.299Z,5.97
2022-10-02T11:29:25.728Z,4.45
2022-10-02T11:30:41.892Z,7.32
2022-10-02T11:32:28.320Z,5.72
2022-10-02T11:33:57.263Z,5.53
2022-10-02T11:35:10.587Z,5.80
2022-10-02T11:36:21.255Z,5.25
2022-10-02T11:37:53.548Z,6.07
2022-10-02T11:39:06.754Z,5.45
2022-10-02T11:40:30.072Z,5.93
2022-10-02T11:42:05.573Z,12.23
2022-10-02T11:43:44.043Z,6.32
2022-10-02T11:44:57.804Z,6.00
2022-10-02T11:46:00.197Z,6.13
2022-10-02T11:47:18.112Z,5.30
2022-10-02T11:48:44.774Z,5.15
2022-10-02T11:50:08.409Z,6.20
2022-10-02T11:51:30.107Z,4.82
2022-10-02T11:52:48.416Z,7.10
2022-10-02T11:54:23.216Z,4.95
2022-10-02T11:55:33.883Z,6.63
2022-10-02T11:56:59.102Z,8.43
2022-10-02T11:58:13.153Z,5.65
2022-10-02T11:59:33.633Z,6.82
2022-10-02T12:01:13.240Z,5.97
2022-10-02T12:02:37.583Z,4.72
2022-10-02T12:04:01.703Z,6.82
2022-10-02T12:05:34.645Z,4.60
2022-10-02T12:06:48.170Z,4.93
2022-10-02T12:08:30.960Z,4.53
2022-10-02T12:09:58.968Z,4.78
2022-10-02T12:11:37.629Z,5.50
2022-10-02T12:12:58.735Z,4.60
2022-10-02T12:14:17.040Z,6.10
2022-10-02T12:15:50.441Z,5.20
2022-10-02T12:16:55.067Z,5.00
2022-10-02T12:18:19.466Z,4.18
2022-10-02T12:19:37.512Z,4.30
2022-10-02T12:21:06.746Z,3.92
2022-10-02T12:23:08.078Z,4.07
2022-10-02T12:24:36.482Z,3.78
2022-10-02T12:26:22.172Z,4.55
2022-10-02T12:27:39.747Z,6.10
2022-10-02T12:29:13.275Z,3.90
2022-10-02T12:31:55.785Z,3.95
2022-10-02T12:33:09.579Z,3.55
2022-10-02T12:34:24.361Z,4.22
2022-10-02T12:35:59.537Z,4.35
2022-10-02T12:37:38.645Z,5.07
2022-10-02T12:39:21.977Z,5.55
2022-10-02T12:40:31.837Z,7.03
2022-10-02T12:42:11.638Z,3.70
2022-10-02T12:44:39.242Z,4.75
2022-10-02T12:45:49.592Z,6.70
2022-10-02T12:47:11.261Z,4.03
2022-10-02T12:48:47.989Z,4.15
2022-10-02T12:50:17.263Z,4.25
2022-10-02T12:51:48.093Z,3.80
2022-10-02T12:53:27.294Z,4.68
2022-10-02T12:54:47.474Z,5.78
2022-10-02T12:56:36.310Z,3.92
2022-10-02T12:57:53.485Z,5.13
2022-10-02T12:59:11.997Z,3.70
2022-10-02T13:00:18.739Z,4.70
2022-10-02T13:01:37.784Z,3.83
2022-10-02T13:03:15.667Z,3.25
2022-10-02T13:04:26.599Z,4.13
2022-10-02T13:05:51.236Z,3.80
2022-10-02T13:07:14.720Z,4.45
2022-10-02T13:08:31.952Z,4.65
2022-10-02T13:09:55.108Z,3.00
2022-10-02T13:11:31.327Z,4.30
2022-10-02T13:13:04.736Z,3.28
2022-10-02T13:14:26.352Z,3.22
2022-10-02T13:15:42.414Z,3.70
2022-10-02T13:16:46.752Z,3.10
2022-10-02T13:18:02.908Z,4.65
2022-10-02T13:19:15.933Z,2.60
2022-10-02T13:20:41.890Z,3.28
2022-10-02T13:21:58.967Z,3.03
2022-10-02T13:23:22.245Z,2.63
2022-10-02T13:24:56.303Z,3.20
2022-10-02T13:26:30.407Z,3.30
2022-10-02T13:28:03.732Z,3.80
2022-10-02T13:29:33.014Z,2.92
2022-10-02T13:30:50.302Z,2.20
2022-10-02T13:32:16.367Z,3.47
2022-10-02T13:33:42.805Z,1.92
2022-10-02T13:35:14.705Z,2.35
2022-10-02T13:36:44.072Z,2.83
2022-10-02T13:38:28.864Z,3.92
2022-10-02T13:39:58.466Z,2.95
2022-10-02T13:41:35.521Z,2.38
2022-10-02T13:43:03.796Z,2.80
2022-10-02T13:44:12.464Z,2.55
2022-10-02T13:45:49.859Z,2.53
2022-10-02T13:46:57.606Z,2.75
2022-10-02T13:48:22.683Z,2.20
2022-10-02T13:49:54.097Z,3.45
2022-10-02T13:51:29.630Z,3.13
2022-10-02T13:53:09.098Z,2.25
2022-10-02T13:54:48.102Z,3.35
2022-10-02T13:56:04.068Z,2.25
2022-10-02T13:57:33.071Z,2.45
2022-10-02T13:59:02.181Z,2.03
2022-10-02T14:00:39.045Z,2.80
2022-10-02T14:02:01.667Z,2.28
2022-10-02T14:03:27.132Z,3.65
2022-10-02T14:04:50.941Z,2.90
2022-10-02T14:06:01.314Z,2.88
2022-10-02T14:07:15.216Z,2.53
2022-10-02T14:08:54.957Z,1.90
2022-10-02T14:11:50.414Z,2.75
2022-10-02T14:13:27.342Z,3.45
2022-10-02T14:14:38.023Z,2.15
2022-10-02T14:15:54.228Z,2.63
2022-10-02T14:17:18.632Z,2.53
2022-10-02T14:18:45.924Z,2.42
2022-10-02T14:20:03.288Z,2.15
2022-10-02T14:21:17.771Z,2.65
2022-10-02T14:22:35.331Z,2.38
2022-10-02T14:23:48.613Z,1.90
2022-10-02T14:25:13.330Z,2.25
2022-10-02T14:26:49.702Z,2.03
2022-10-02T14:28:06.826Z,3.10
2022-10-02T14:29:21.779Z,3.10
2022-10-02T14:30:41.152Z,2.05
2022-10-02T14:31:48.772Z,4.15
2022-10-02T14:33:08.136Z,2.55
2022-10-02T14:34:34.052Z,1.88
2022-10-02T14:35:57.357Z,1.92
2022-10-02T14:37:41.884Z,3.10
2022-10-02T14:38:49.690Z,3.22
2022-10-02T14:39:53.019Z,2.97
2022-10-02T14:40:57.191Z,2.53
2022-10-02T14:42:18.754Z,2.30
2022-10-02T14:43:51.931Z,2.58
2022-10-02T14:45:26.653Z,2.10
2022-10-02T14:46:51.837Z,2.50
2022-10-02T14:48:35.061Z,2.67
2022-10-02T14:49:49.635Z,2.63
2022-10-02T14:51:06.910Z,2.72
2022-10-02T14:52:22.690Z,2.55
2022-10-02T14:53:37.422Z,3.53
2022-10-02T14:55:09.819Z,2.28
2022-10-02T14:56:20.634Z,2.80
2022-10-02T14:57:48.037Z,2.10
2022-10-02T15:01:22.518Z,2.58
2022-10-02T15:02:34.599Z,2.08
2022-10-02T15:03:47.705Z,2.33
2022-10-02T15:05:14.110Z,2.22
2022-10-02T15:06:51.799Z,3.08
2022-10-02T15:07:54.132Z,2.40
2022-10-02T15:09:02.795Z,1.90
2022-10-02T15:10:21.984Z,2.40
2022-10-02T15:11:35.805Z,2.05
2022-10-02T15:12:43.983Z,3.80
2022-10-02T15:14:01.769Z,1.95
2022-10-02T15:15:15.294Z,2.10
2022-10-02T15:17:05.849Z,2.92
2022-10-02T15:18:38.555Z,3.28
2022-10-02T15:19:50.068Z,2.22
2022-10-02T15:21:01.803Z,2.75
2022-10-02T15:22:19.200Z,2.65
2022-10-02T15:23:48.570Z,2.15
2022-10-02T15:24:58.481Z,3.38
2022-10-02T15:26:37.535Z,1.88
2022-10-02T15:27:51.981Z,3.63
2022-10-02T15:29:11.595Z,2.42
2022-10-02T15:30:22.304Z,2.58
2022-10-02T15:31:44.215Z,2.08
2022-10-02T15:33:12.825Z,3.28
2022-10-02T15:34:32.224Z,2.50
2022-10-02T15:35:51.573Z,2.38
2022-10-02T15:37:04.707Z,2.53
2022-10-02T15:38:17.567Z,2.60
2022-10-02T15:39:34.810Z,2.17
2022-10-02T15:40:49.937Z,2.95
2022-10-02T15:42:04.506Z,2.85
2022-10-02T15:43:15.350Z,2.90
2022-10-02T15:44:39.776Z,2.65
2022-10-02T15:46:05.872Z,2.17
2022-10-02T15:47:35.661Z,3.13
2022-10-02T15:49:03.454Z,3.22
2022-10-02T15:50:32.759Z,2.55
2022-10-02T15:52:02.168Z,3.15
2022-10-02T15:53:47.731Z,2.65
2022-10-02T15:55:05.952Z,3.70
2022-10-02T15:56:40.466Z,2.45
2022-10-02T15:57:41.879Z,2.90
2022-10-02T15:59:08.846Z,3.20
2022-10-02T16:00:10.558Z,5.78
2022-10-02T16:01:44.326Z,4.05
2022-10-02T16:03:16.983Z,3.70
2022-10-02T16:04:33.972Z,4.50
2022-10-02T16:05:51.171Z,2.97
2022-10-02T16:07:11.405Z,3.38
2022-10-02T16:08:30.988Z,2.85
2022-10-02T16:09:58.171Z,5.03
2022-10-02T16:11:33.530Z,3.22
2022-10-02T16:13:12.884Z,3.33
2022-10-02T16:14:49.858Z,3.10
2022-10-02T16:16:17.693Z,3.60
2022-10-02T16:17:44.516Z,2.85
2022-10-02T16:19:23.743Z,2.95
2022-10-02T16:20:31.177Z,2.38
2022-10-02T16:21:39.162Z,3.95
2022-10-02T16:23:01.556Z,2.88
2022-10-02T16:24:21.936Z,3.75
2022-10-02T16:26:03.243Z,3.85
2022-10-02T16:27:23.212Z,3.80
2022-10-02T16:28:46.525Z,3.60
2022-10-02T16:30:13.394Z,3.38
2022-10-02T16:31:43.677Z,3.30
2022-10-02T16:33:19.010Z,3.22
2022-10-02T16:34:51.333Z,3.42
2022-10-02T16:36:14.101Z,5.68
2022-10-02T16:37:26.624Z,3.55
2022-10-02T16:38:47.645Z,3.17
2022-10-02T16:40:03.156Z,3.92
2022-10-02T16:41:15.282Z,3.03
2022-10-02T16:42:48.563Z,4.13
2022-10-02T16:43:58.816Z,3.58
2022-10-02T16:45:18.746Z,4.97
2022-10-02T16:46:32.449Z,3.88
2022-10-02T16:47:53.414Z,3.60
2022-10-02T16:49:02.450Z,3.90
2022-10-02T16:51:28.806Z,2.85
2022-10-02T16:52:38.190Z,3.40
2022-10-02T16:54:08.562Z,4.65
2022-10-02T16:55:30.853Z,4.80
2022-10-02T16:56:54.324Z,3.50
2022-10-02T16:58:07.522Z,3.40
2022-10-02T16:59:25.557Z,3.90
2022-10-02T17:00:34.168Z,3.25
2022-10-02T17:01:59.515Z,4.90
2022-10-02T17:03:32.611Z,4.95
2022-10-02T17:04:46.480Z,4.65
2022-10-02T17:06:04.107Z,3.55
2022-10-02T17:07:14.783Z,3.60
2022-10-02T17:08:23.354Z,3.78
2022-10-02T17:09:39.078Z,3.70
2022-10-02T17:11:06.713Z,3.30
2022-10-02T17:12:24.488Z,3.70
2022-10-02T17:13:49.668Z,4.07
2022-10-02T17:15:03.446Z,3.55
2022-10-02T17:16:11.659Z,4.57
2022-10-02T17:17:29.079Z,4.45
2022-10-02T17:18:41.617Z,6.95
2022-10-02T17:20:01.605Z,4.82
2022-10-02T17:21:21.752Z,3.42
2022-10-02T17:22:38.032Z,3.25
2022-10-02T17:23:42.709Z,3.70
2022-10-02T17:24:53.993Z,3.60
2022-10-02T17:26:19.224Z,3.42
2022-10-02T17:27:32.692Z,4.20
2022-10-02T17:29:13.111Z,4.15
2022-10-02T17:30:15.009Z,4.07
2022-10-02T17:31:34.660Z,4.10
2022-10-02T17:32:51.611Z,4.65
2022-10-02T17:34:00.636Z,3.00
2022-10-02T17:36:31.390Z,4.32
2022-10-02T17:38:25.746Z,3.75
2022-10-02T17:39:46.333Z,4.00
2022-10-02T17:40:57.125Z,4.90
2022-10-02T17:42:20.121Z,3.83
2022-10-02T17:43:37.450Z,3.72
2022-10-02T17:44:47.904Z,4.85
2022-10-02T17:46:11.396Z,3.63
2022-10-02T17:47:32.093Z,4.38
2022-10-02T17:49:03.890Z,3.90
2022-10-02T17:50:19.798Z,3.88
2022-10-02T17:53:37.294Z,3.83